LFCRLFBH

Guest
Details From LFCR - Rodez Marcillac
To LFBH - La Rochelle Laleu
Flight Number -
Tags generated
Created
Modified
Stats Distance 188 nm / 349 km
Max Altitude 18,800 ft / 5,730 m
Waypoints 3
Social Downloads 0
Likes 0
Share VATSIM

Download

Looking for another format? Having issues loading an existing format? Contact us
Advertisement - Login to hide

Notes

Basic altitude profile: - Ascent Rate: 2500ft/min - Ascent Speed: 250kts - Cruise Altitude: 35000ft - Cruise Speed: 420kts - Descent Rate: 1500ft/min - Descent Speed: 250kts Options: - Use NATs: yes - Use PACOTS: yes - Use low airways: yes - Use high airways: yes

Route

LFCR SOMIG LFBH

ID Type Via Altitude Latitude Longitude Leg Dist Tot Dist Heading (true) Name
O LFCR APT - 0 ft / 0 m 44.40789˚ 2.48265˚ - 0 nm - Rodez Marcillac
SOMIG FIX - 18,800 ft / 5,730 m 45.37500˚ 0.56250˚ 100 nm 100 nm 306° / 305° -
O LFBH APT - 0 ft / 0 m 46.17924˚ -1.19641˚ 88 nm 188 nm 304° / 303° La Rochelle Laleu

Altitude Profile

Advertisement - Login to hide

Weather


0- 5 10 15 20 25 30 35+ Temperature / ° C

Clouds and Precipitation
Forecast for 2017-12-12 06:00 UTC. Updated 2 hours ago

Ground ~20,000 ft ~40,000 ft Winds

LFCR

Details ICAO LFCR (RDZ)
Name Rodez Marcillac
Region France
Timezone Europe/Paris (UTC+1.0)
Stats Elevation 1,910 ft / 582 m (AMSL)
Location 44.407888° 2.482646°
Runways 1
Magnetic Variation 0.844° E

METAR

LFCR 120630Z AUTO 32006KT 280V340 9999 OVC004 02/02 Q1009 TEMPO 4000 -RASN VV///

Decode

TAF

TAF LFCR 120500Z 1206/1306 25009KT 9999 BKN007 TEMPO 1206/1209 4000 -RASN OVC004 PROB40 TEMPO 1206/1209 -SN VV/// BECMG 1210/1212 BKN014 BECMG 1216/1218 CAVOK TEMPO 1222/1306 2000 BR PROB40 TEMPO 1300/1306 0600 FG VV///

Decode

Departure Runways

ID Width Length Bearing (true) Bearing (mag) Surface Threshold Offset Overrun Length
13 148 ft / 45 m 6,709 ft / 2,045 m 129.07° 128.23° Asphalt 0 ft / 0 m 656 ft / 200 m
31 148 ft / 45 m 6,709 ft / 2,045 m 309.08° 308.24° Asphalt 164 ft / 50 m 0 ft / 0 m

LFBH

Details ICAO LFBH (LRH)
Name La Rochelle Laleu
Region France
Timezone Europe/Paris (UTC+1.0)
Stats Elevation 74 ft / 23 m (AMSL)
Location 46.179245° -1.196410°
Runways 1
Magnetic Variation 0.303° W

METAR

LFBH 120630Z AUTO 15002KT CAVOK 01/M01 Q1011

Decode

TAF

TAF AMD LFBH 120612Z 1206/1306 CNL

Decode

Destination Runways

ID Width Length Bearing (true) Bearing (mag) Surface Threshold Offset Overrun Length
10 148 ft / 45 m 7,383 ft / 2,250 m 92.43° 92.73° Asphalt 1,033 ft / 315 m 0 ft / 0 m
28 148 ft / 45 m 7,383 ft / 2,250 m 272.45° 272.75° Asphalt 1,532 ft / 467 m 0 ft / 0 m

Approach Navaids

Runway Type Ident Frequency Range Bearing (true) Bearing (mag) Slope Elevation
28 Localiser RL 109.55 MHz 18 nm / 33 km 272.43° 272.73° - 72 ft / 22 m (AMSL)
28 Glidescope RL 109.55 MHz 10 nm / 19 km 272.44° 272.74° 3.10° 108 ft / 33 m (AMSL)
28 DME RL 109.55 MHz 18 nm / 33 km - - - 66 ft / 20 m (AMSL)